• vieta
  • image
  • image
  • image
mod_vvisit_countermod_vvisit_countermod_vvisit_countermod_vvisit_countermod_vvisit_countermod_vvisit_counter
mod_vvisit_counterŠiandien83
mod_vvisit_counterVakar942
mod_vvisit_counterŠią savaitę4492
mod_vvisit_counterPraėjusią savaitę6203
mod_vvisit_counterŠį mėnesį17188
mod_vvisit_counterPraėjusį mėnesį16929
mod_vvisit_counterViso980114

Mes turime: 30 svečius, 1 bots online
Jūsų IP: 54.156.51.193
 , 
Šiandien: Rugs 23, 2018
Oro uostas / Naujienos / 2015 Gegužė

2015 Gegužė

Š.m. gegužės 28 d. iš Uzbekistano į tarptautinį Šiaulių oro uostą atskrido orlaivis IL-76TD. Šiuo orlaiviu iš Lietuvos į Uzbekistaną buvo išgabenta Lietuvoje pagaminta oro uosto valdymui skirta įrangą. Krovinio ekspedijavimą atliko UAB „Rikusta“.

UAB „Rikusta“ teigimu, vykdytas projektas yra tęstinis, artimiausiu metu nusimato pakartotiniai skrydžiai į Šiaulius.


IL76 01IL76 02

Šiandien

Sekmadienis, 23 Rugsėjis 2018

Orų prognozė aviacijai

[source: ADDS]
METAR
EYSA 230020Z 19014KT 9999 -SHRA FEW036CB OVC057 09/07 Q1008 BLU NOSIG =
TAF EYSA 222309Z 2300/2309 23014KT 9000 BKN025 TEMPO 2300/2303 5000 -TSRA SCT005 BKN015CB TEMPO 2303/2309 3000 TSRA SCT005 BKN015CB
TAF
TAF EYSA 222309Z 2300/2309 23014KT 9000 BKN025 TEMPO 2300/2303 5000 -TSRA SCT005 BKN015CB TEMPO 2303/2309 3000 TSRA SCT005 BKN015CB =
SR / SS: 04:15 / 16:24 UTC (EYSA 2018-09-23)

Paieška

Lankytojai

Mes turime 31 svečius online

tic logo lt